sensor_id;sensor_type;location;lat;lon;timestamp;temperature;humidity
20041;DHT22;10181;48.072;9.884;2023-07-08T00:00:42;17.70;99.90
20041;DHT22;10181;48.072;9.884;2023-07-08T00:03:08;17.60;99.90
20041;DHT22;10181;48.072;9.884;2023-07-08T00:05:34;17.50;99.90
20041;DHT22;10181;48.072;9.884;2023-07-08T00:08:00;17.40;99.90
20041;DHT22;10181;48.072;9.884;2023-07-08T00:10:26;17.30;99.90
20041;DHT22;10181;48.072;9.884;2023-07-08T00:12:55;17.20;99.90
20041;DHT22;10181;48.072;9.884;2023-07-08T00:15:25;17.10;99.90
20041;DHT22;10181;48.072;9.884;2023-07-08T00:17:51;17.10;99.90
20041;DHT22;10181;48.072;9.884;2023-07-08T00:22:57;16.90;99.90
20041;DHT22;10181;48.072;9.884;2023-07-08T00:25:22;16.90;99.90
20041;DHT22;10181;48.072;9.884;2023-07-08T00:27:48;16.80;99.90
20041;DHT22;10181;48.072;9.884;2023-07-08T00:30:23;16.80;99.90
20041;DHT22;10181;48.072;9.884;2023-07-08T00:32:49;16.70;99.90
20041;DHT22;10181;48.072;9.884;2023-07-08T00:35:24;16.70;99.90
20041;DHT22;10181;48.072;9.884;2023-07-08T00:37:51;16.60;99.90
20041;DHT22;10181;48.072;9.884;2023-07-08T00:40:27;16.50;99.90
20041;DHT22;10181;48.072;9.884;2023-07-08T00:42:53;16.50;99.90
20041;DHT22;10181;48.072;9.884;2023-07-08T00:48:24;16.30;99.90
20041;DHT22;10181;48.072;9.884;2023-07-08T00:50:51;16.30;99.90
20041;DHT22;10181;48.072;9.884;2023-07-08T00:53:29;16.30;99.90
20041;DHT22;10181;48.072;9.884;2023-07-08T00:56:16;16.20;99.90
20041;DHT22;10181;48.072;9.884;2023-07-08T00:59:31;16.30;99.90
20041;DHT22;10181;48.072;9.884;2023-07-08T01:01:32;16.20;99.90
20041;DHT22;10181;48.072;9.884;2023-07-08T01:04:05;16.30;99.90
20041;DHT22;10181;48.072;9.884;2023-07-08T01:06:34;16.20;99.90
20041;DHT22;10181;48.072;9.884;2023-07-08T01:09:08;16.30;99.90
20041;DHT22;10181;48.072;9.884;2023-07-08T01:11:35;16.30;99.90
20041;DHT22;10181;48.072;9.884;2023-07-08T01:14:05;16.30;99.90
20041;DHT22;10181;48.072;9.884;2023-07-08T01:16:31;16.30;99.90
20041;DHT22;10181;48.072;9.884;2023-07-08T01:19:00;16.30;99.90
20041;DHT22;10181;48.072;9.884;2023-07-08T01:21:38;16.40;99.90
20041;DHT22;10181;48.072;9.884;2023-07-08T01:24:09;16.40;99.90
20041;DHT22;10181;48.072;9.884;2023-07-08T01:26:39;16.40;99.90
20041;DHT22;10181;48.072;9.884;2023-07-08T01:29:05;16.40;99.90
20041;DHT22;10181;48.072;9.884;2023-07-08T01:31:33;16.40;99.90
20041;DHT22;10181;48.072;9.884;2023-07-08T01:33:59;16.30;99.90
20041;DHT22;10181;48.072;9.884;2023-07-08T01:36:26;16.30;99.90
20041;DHT22;10181;48.072;9.884;2023-07-08T01:38:55;16.20;99.90
20041;DHT22;10181;48.072;9.884;2023-07-08T01:41:20;16.20;99.90
20041;DHT22;10181;48.072;9.884;2023-07-08T01:43:46;16.10;99.90
20041;DHT22;10181;48.072;9.884;2023-07-08T01:46:16;16.00;99.90
20041;DHT22;10181;48.072;9.884;2023-07-08T01:48:47;15.90;99.90
20041;DHT22;10181;48.072;9.884;2023-07-08T01:51:13;15.80;99.90
20041;DHT22;10181;48.072;9.884;2023-07-08T01:53:41;15.70;99.90
20041;DHT22;10181;48.072;9.884;2023-07-08T01:56:08;15.60;99.90
20041;DHT22;10181;48.072;9.884;2023-07-08T01:58:34;15.60;99.90
20041;DHT22;10181;48.072;9.884;2023-07-08T02:01:01;15.60;99.90
20041;DHT22;10181;48.072;9.884;2023-07-08T02:03:27;15.60;99.90
20041;DHT22;10181;48.072;9.884;2023-07-08T02:05:53;15.60;99.90
20041;DHT22;10181;48.072;9.884;2023-07-08T02:08:20;15.70;99.90
20041;DHT22;10181;48.072;9.884;2023-07-08T02:10:49;15.70;99.90
20041;DHT22;10181;48.072;9.884;2023-07-08T02:13:15;15.80;99.90
20041;DHT22;10181;48.072;9.884;2023-07-08T02:15:41;15.70;99.90
20041;DHT22;10181;48.072;9.884;2023-07-08T02:18:06;15.70;99.90
20041;DHT22;10181;48.072;9.884;2023-07-08T02:20:32;15.60;99.90
20041;DHT22;10181;48.072;9.884;2023-07-08T02:22:57;15.50;99.90
20041;DHT22;10181;48.072;9.884;2023-07-08T02:25:23;15.50;99.90
20041;DHT22;10181;48.072;9.884;2023-07-08T02:27:49;15.60;99.90
20041;DHT22;10181;48.072;9.884;2023-07-08T02:30:14;15.60;99.90
20041;DHT22;10181;48.072;9.884;2023-07-08T02:32:41;15.80;99.90
20041;DHT22;10181;48.072;9.884;2023-07-08T02:35:08;16.00;99.90
20041;DHT22;10181;48.072;9.884;2023-07-08T02:37:34;16.10;99.90
20041;DHT22;10181;48.072;9.884;2023-07-08T02:40:00;16.30;99.90
20041;DHT22;10181;48.072;9.884;2023-07-08T02:42:26;16.30;99.90
20041;DHT22;10181;48.072;9.884;2023-07-08T02:44:52;16.50;99.90
20041;DHT22;10181;48.072;9.884;2023-07-08T02:47:17;16.60;99.90
20041;DHT22;10181;48.072;9.884;2023-07-08T02:49:43;16.60;99.90
20041;DHT22;10181;48.072;9.884;2023-07-08T02:52:09;16.70;99.90
20041;DHT22;10181;48.072;9.884;2023-07-08T02:54:34;16.80;99.90
20041;DHT22;10181;48.072;9.884;2023-07-08T02:57:00;16.90;99.90
20041;DHT22;10181;48.072;9.884;2023-07-08T02:59:26;17.00;99.90
20041;DHT22;10181;48.072;9.884;2023-07-08T03:01:53;17.00;99.90
20041;DHT22;10181;48.072;9.884;2023-07-08T03:04:19;17.10;99.90
20041;DHT22;10181;48.072;9.884;2023-07-08T03:06:49;17.10;99.90
20041;DHT22;10181;48.072;9.884;2023-07-08T03:09:15;17.10;99.90
20041;DHT22;10181;48.072;9.884;2023-07-08T03:11:40;17.10;99.90
20041;DHT22;10181;48.072;9.884;2023-07-08T03:14:06;17.00;99.90
20041;DHT22;10181;48.072;9.884;2023-07-08T03:16:32;17.00;99.90
20041;DHT22;10181;48.072;9.884;2023-07-08T03:18:58;16.90;99.90
20041;DHT22;10181;48.072;9.884;2023-07-08T03:21:24;16.90;99.90
20041;DHT22;10181;48.072;9.884;2023-07-08T03:23:51;16.80;99.90
20041;DHT22;10181;48.072;9.884;2023-07-08T03:26:19;16.80;99.90
20041;DHT22;10181;48.072;9.884;2023-07-08T03:28:46;16.80;99.90
20041;DHT22;10181;48.072;9.884;2023-07-08T03:31:12;16.80;99.90
20041;DHT22;10181;48.072;9.884;2023-07-08T03:33:37;16.70;99.90
20041;DHT22;10181;48.072;9.884;2023-07-08T03:36:07;16.70;99.90
20041;DHT22;10181;48.072;9.884;2023-07-08T03:38:35;16.70;99.90
20041;DHT22;10181;48.072;9.884;2023-07-08T03:41:01;16.60;99.90
20041;DHT22;10181;48.072;9.884;2023-07-08T03:43:26;16.50;99.90
20041;DHT22;10181;48.072;9.884;2023-07-08T03:45:53;16.50;99.90
20041;DHT22;10181;48.072;9.884;2023-07-08T03:48:18;16.50;99.90
20041;DHT22;10181;48.072;9.884;2023-07-08T03:50:44;16.50;99.90
20041;DHT22;10181;48.072;9.884;2023-07-08T03:53:10;16.50;99.90
20041;DHT22;10181;48.072;9.884;2023-07-08T03:55:35;16.50;99.90
20041;DHT22;10181;48.072;9.884;2023-07-08T03:58:01;16.50;99.90
20041;DHT22;10181;48.072;9.884;2023-07-08T04:00:27;16.50;99.90
20041;DHT22;10181;48.072;9.884;2023-07-08T04:02:52;16.50;99.90
20041;DHT22;10181;48.072;9.884;2023-07-08T04:05:20;16.50;99.90
20041;DHT22;10181;48.072;9.884;2023-07-08T04:07:46;16.60;99.90
20041;DHT22;10181;48.072;9.884;2023-07-08T04:10:13;16.70;99.90
20041;DHT22;10181;48.072;9.884;2023-07-08T04:12:39;16.70;99.90
20041;DHT22;10181;48.072;9.884;2023-07-08T04:15:07;16.80;99.90
20041;DHT22;10181;48.072;9.884;2023-07-08T04:17:33;16.80;99.90
20041;DHT22;10181;48.072;9.884;2023-07-08T04:19:59;16.80;99.90
20041;DHT22;10181;48.072;9.884;2023-07-08T04:22:31;16.80;99.90
20041;DHT22;10181;48.072;9.884;2023-07-08T04:24:56;16.80;99.90
20041;DHT22;10181;48.072;9.884;2023-07-08T04:27:22;16.80;99.90
20041;DHT22;10181;48.072;9.884;2023-07-08T04:29:48;16.90;99.90
20041;DHT22;10181;48.072;9.884;2023-07-08T04:32:14;16.80;99.90
20041;DHT22;10181;48.072;9.884;2023-07-08T04:34:39;16.80;99.90
20041;DHT22;10181;48.072;9.884;2023-07-08T04:37:05;16.80;99.90
20041;DHT22;10181;48.072;9.884;2023-07-08T04:39:31;16.80;99.90
20041;DHT22;10181;48.072;9.884;2023-07-08T04:41:56;16.90;99.90
20041;DHT22;10181;48.072;9.884;2023-07-08T04:44:22;16.90;99.90
20041;DHT22;10181;48.072;9.884;2023-07-08T04:46:52;17.00;99.90
20041;DHT22;10181;48.072;9.884;2023-07-08T04:49:20;17.00;99.90
20041;DHT22;10181;48.072;9.884;2023-07-08T04:51:45;17.10;99.90
20041;DHT22;10181;48.072;9.884;2023-07-08T04:54:11;17.20;99.90
20041;DHT22;10181;48.072;9.884;2023-07-08T04:56:43;17.30;99.90
20041;DHT22;10181;48.072;9.884;2023-07-08T04:59:10;17.20;99.90
20041;DHT22;10181;48.072;9.884;2023-07-08T05:01:37;17.20;99.90
20041;DHT22;10181;48.072;9.884;2023-07-08T05:04:03;17.10;99.90
20041;DHT22;10181;48.072;9.884;2023-07-08T05:06:31;17.10;99.90
20041;DHT22;10181;48.072;9.884;2023-07-08T05:08:58;17.10;99.90
20041;DHT22;10181;48.072;9.884;2023-07-08T05:11:24;17.20;99.90
20041;DHT22;10181;48.072;9.884;2023-07-08T05:13:50;17.20;99.90
20041;DHT22;10181;48.072;9.884;2023-07-08T05:16:16;17.20;99.90
20041;DHT22;10181;48.072;9.884;2023-07-08T05:18:42;17.30;99.90
20041;DHT22;10181;48.072;9.884;2023-07-08T05:21:09;17.30;99.90
20041;DHT22;10181;48.072;9.884;2023-07-08T05:23:35;17.30;99.90
20041;DHT22;10181;48.072;9.884;2023-07-08T05:26:02;17.30;99.90
20041;DHT22;10181;48.072;9.884;2023-07-08T05:28:28;17.30;99.90
20041;DHT22;10181;48.072;9.884;2023-07-08T05:30:54;17.30;99.90
20041;DHT22;10181;48.072;9.884;2023-07-08T05:33:26;17.20;99.90
20041;DHT22;10181;48.072;9.884;2023-07-08T05:35:53;17.20;99.90
20041;DHT22;10181;48.072;9.884;2023-07-08T05:38:23;17.20;99.90
20041;DHT22;10181;48.072;9.884;2023-07-08T05:40:54;17.20;99.90
20041;DHT22;10181;48.072;9.884;2023-07-08T05:43:21;17.30;99.90
20041;DHT22;10181;48.072;9.884;2023-07-08T05:45:47;17.40;99.90
20041;DHT22;10181;48.072;9.884;2023-07-08T05:48:13;17.40;99.90
20041;DHT22;10181;48.072;9.884;2023-07-08T05:50:39;17.40;99.90
20041;DHT22;10181;48.072;9.884;2023-07-08T05:53:08;17.40;99.90
20041;DHT22;10181;48.072;9.884;2023-07-08T05:55:34;17.30;99.90
20041;DHT22;10181;48.072;9.884;2023-07-08T05:58:00;17.40;99.90
20041;DHT22;10181;48.072;9.884;2023-07-08T06:00:26;17.40;99.90
20041;DHT22;10181;48.072;9.884;2023-07-08T06:02:52;17.50;99.90
20041;DHT22;10181;48.072;9.884;2023-07-08T06:05:18;17.50;99.90
20041;DHT22;10181;48.072;9.884;2023-07-08T06:07:43;17.60;99.90
20041;DHT22;10181;48.072;9.884;2023-07-08T06:10:10;17.70;99.90
20041;DHT22;10181;48.072;9.884;2023-07-08T06:12:36;17.70;99.90
20041;DHT22;10181;48.072;9.884;2023-07-08T06:15:02;17.80;99.90
20041;DHT22;10181;48.072;9.884;2023-07-08T06:17:28;17.80;99.90
20041;DHT22;10181;48.072;9.884;2023-07-08T06:19:53;17.80;99.90
20041;DHT22;10181;48.072;9.884;2023-07-08T06:22:19;17.80;99.90
20041;DHT22;10181;48.072;9.884;2023-07-08T06:24:45;17.90;99.90
20041;DHT22;10181;48.072;9.884;2023-07-08T06:27:13;18.00;99.90
20041;DHT22;10181;48.072;9.884;2023-07-08T06:29:39;18.00;99.90
20041;DHT22;10181;48.072;9.884;2023-07-08T06:32:06;18.10;99.90
20041;DHT22;10181;48.072;9.884;2023-07-08T06:34:32;18.10;99.90
20041;DHT22;10181;48.072;9.884;2023-07-08T06:36:58;18.20;99.90
20041;DHT22;10181;48.072;9.884;2023-07-08T06:39:23;18.30;99.90
20041;DHT22;10181;48.072;9.884;2023-07-08T06:41:49;18.30;99.90
20041;DHT22;10181;48.072;9.884;2023-07-08T06:44:15;18.40;99.90
20041;DHT22;10181;48.072;9.884;2023-07-08T06:46:40;18.50;99.90
20041;DHT22;10181;48.072;9.884;2023-07-08T06:49:06;18.60;99.90
20041;DHT22;10181;48.072;9.884;2023-07-08T06:51:34;18.70;99.90
20041;DHT22;10181;48.072;9.884;2023-07-08T06:54:00;18.90;99.90
20041;DHT22;10181;48.072;9.884;2023-07-08T06:56:30;19.10;99.90
20041;DHT22;10181;48.072;9.884;2023-07-08T06:58:55;19.30;99.90
20041;DHT22;10181;48.072;9.884;2023-07-08T07:01:21;19.50;99.90
20041;DHT22;10181;48.072;9.884;2023-07-08T07:03:46;19.70;99.90
20041;DHT22;10181;48.072;9.884;2023-07-08T07:06:12;19.80;99.90
20041;DHT22;10181;48.072;9.884;2023-07-08T07:08:38;19.80;99.90
20041;DHT22;10181;48.072;9.884;2023-07-08T07:11:03;19.80;99.90
20041;DHT22;10181;48.072;9.884;2023-07-08T07:13:29;19.80;99.90
20041;DHT22;10181;48.072;9.884;2023-07-08T07:15:54;19.90;99.90
20041;DHT22;10181;48.072;9.884;2023-07-08T07:18:20;19.90;99.90
20041;DHT22;10181;48.072;9.884;2023-07-08T07:20:53;19.90;99.90
20041;DHT22;10181;48.072;9.884;2023-07-08T07:23:18;19.90;99.90
20041;DHT22;10181;48.072;9.884;2023-07-08T07:25:46;19.90;99.90
20041;DHT22;10181;48.072;9.884;2023-07-08T07:28:13;20.00;99.90
20041;DHT22;10181;48.072;9.884;2023-07-08T07:30:39;20.00;99.90
20041;DHT22;10181;48.072;9.884;2023-07-08T07:33:05;20.00;99.90
20041;DHT22;10181;48.072;9.884;2023-07-08T07:35:30;20.10;99.90
20041;DHT22;10181;48.072;9.884;2023-07-08T07:37:56;20.20;99.90
20041;DHT22;10181;48.072;9.884;2023-07-08T07:40:21;20.30;99.90
20041;DHT22;10181;48.072;9.884;2023-07-08T07:42:47;20.50;99.90
20041;DHT22;10181;48.072;9.884;2023-07-08T07:45:13;20.60;99.90
20041;DHT22;10181;48.072;9.884;2023-07-08T07:47:39;20.60;99.90
20041;DHT22;10181;48.072;9.884;2023-07-08T07:50:06;20.70;99.90
20041;DHT22;10181;48.072;9.884;2023-07-08T07:52:32;20.70;99.90
20041;DHT22;10181;48.072;9.884;2023-07-08T07:54:58;20.80;99.90
20041;DHT22;10181;48.072;9.884;2023-07-08T07:57:24;20.90;99.90
20041;DHT22;10181;48.072;9.884;2023-07-08T07:59:50;21.00;99.90
20041;DHT22;10181;48.072;9.884;2023-07-08T08:02:17;21.00;99.90
20041;DHT22;10181;48.072;9.884;2023-07-08T08:04:42;21.10;99.90
20041;DHT22;10181;48.072;9.884;2023-07-08T08:07:08;21.10;99.90
20041;DHT22;10181;48.072;9.884;2023-07-08T08:09:35;21.10;99.90
20041;DHT22;10181;48.072;9.884;2023-07-08T08:12:02;21.20;99.90
20041;DHT22;10181;48.072;9.884;2023-07-08T08:14:28;21.20;99.90
20041;DHT22;10181;48.072;9.884;2023-07-08T08:16:54;21.10;99.90
20041;DHT22;10181;48.072;9.884;2023-07-08T08:19:19;21.20;99.90
20041;DHT22;10181;48.072;9.884;2023-07-08T08:21:45;21.20;99.90
20041;DHT22;10181;48.072;9.884;2023-07-08T08:24:11;21.30;99.90
20041;DHT22;10181;48.072;9.884;2023-07-08T08:26:36;21.30;99.90
20041;DHT22;10181;48.072;9.884;2023-07-08T08:29:02;21.30;99.90
20041;DHT22;10181;48.072;9.884;2023-07-08T08:31:28;21.40;99.90
20041;DHT22;10181;48.072;9.884;2023-07-08T08:33:53;21.40;99.90
20041;DHT22;10181;48.072;9.884;2023-07-08T08:36:20;21.50;99.90
20041;DHT22;10181;48.072;9.884;2023-07-08T08:38:46;21.50;99.90
20041;DHT22;10181;48.072;9.884;2023-07-08T08:41:13;21.60;99.90
20041;DHT22;10181;48.072;9.884;2023-07-08T08:43:40;21.60;99.90
20041;DHT22;10181;48.072;9.884;2023-07-08T08:46:29;21.60;99.90
20041;DHT22;10181;48.072;9.884;2023-07-08T08:51:42;21.80;99.90
20041;DHT22;10181;48.072;9.884;2023-07-08T08:54:08;21.90;99.90
20041;DHT22;10181;48.072;9.884;2023-07-08T09:04:44;22.30;99.90
20041;DHT22;10181;48.072;9.884;2023-07-08T09:07:16;22.50;99.90
20041;DHT22;10181;48.072;9.884;2023-07-08T09:12:27;22.70;99.90
20041;DHT22;10181;48.072;9.884;2023-07-08T09:14:55;22.80;99.90
20041;DHT22;10181;48.072;9.884;2023-07-08T09:17:30;22.80;99.90
20041;DHT22;10181;48.072;9.884;2023-07-08T09:20:12;22.80;99.90
20041;DHT22;10181;48.072;9.884;2023-07-08T09:23:01;22.80;99.90
20041;DHT22;10181;48.072;9.884;2023-07-08T09:25:38;22.70;99.90
20041;DHT22;10181;48.072;9.884;2023-07-08T09:28:04;22.60;99.90
20041;DHT22;10181;48.072;9.884;2023-07-08T09:30:30;22.60;99.90
20041;DHT22;10181;48.072;9.884;2023-07-08T09:32:57;22.60;99.90
20041;DHT22;10181;48.072;9.884;2023-07-08T09:37:49;22.60;99.90
20041;DHT22;10181;48.072;9.884;2023-07-08T09:42:43;22.80;99.90
20041;DHT22;10181;48.072;9.884;2023-07-08T09:45:16;22.90;99.90
20041;DHT22;10181;48.072;9.884;2023-07-08T09:47:43;23.00;99.90
20041;DHT22;10181;48.072;9.884;2023-07-08T09:50:24;23.00;99.90
20041;DHT22;10181;48.072;9.884;2023-07-08T09:52:52;23.10;99.90
20041;DHT22;10181;48.072;9.884;2023-07-08T09:55:19;23.20;99.90
20041;DHT22;10181;48.072;9.884;2023-07-08T09:57:47;23.50;99.90
20041;DHT22;10181;48.072;9.884;2023-07-08T10:00:17;23.60;99.90
20041;DHT22;10181;48.072;9.884;2023-07-08T10:05:22;23.50;99.90
20041;DHT22;10181;48.072;9.884;2023-07-08T10:07:51;23.40;99.90
20041;DHT22;10181;48.072;9.884;2023-07-08T10:10:28;23.30;99.90
20041;DHT22;10181;48.072;9.884;2023-07-08T10:12:58;23.30;99.90
20041;DHT22;10181;48.072;9.884;2023-07-08T10:15:40;23.20;99.90
20041;DHT22;10181;48.072;9.884;2023-07-08T10:18:17;23.30;99.90
20041;DHT22;10181;48.072;9.884;2023-07-08T10:20:59;23.20;99.90
20041;DHT22;10181;48.072;9.884;2023-07-08T10:23:44;23.30;99.90
20041;DHT22;10181;48.072;9.884;2023-07-08T10:31:42;23.40;99.90
20041;DHT22;10181;48.072;9.884;2023-07-08T10:34:29;23.40;99.90
20041;DHT22;10181;48.072;9.884;2023-07-08T10:45:26;23.60;99.90
20041;DHT22;10181;48.072;9.884;2023-07-08T10:56:18;24.10;99.90
20041;DHT22;10181;48.072;9.884;2023-07-08T11:04:32;24.10;99.90
20041;DHT22;10181;48.072;9.884;2023-07-08T11:09:48;24.30;99.90
20041;DHT22;10181;48.072;9.884;2023-07-08T11:12:33;24.30;99.90
20041;DHT22;10181;48.072;9.884;2023-07-08T11:15:20;24.30;99.90
20041;DHT22;10181;48.072;9.884;2023-07-08T11:18:16;24.20;99.90
20041;DHT22;10181;48.072;9.884;2023-07-08T11:26:30;24.30;99.90
20041;DHT22;10181;48.072;9.884;2023-07-08T11:28:58;24.40;99.90
20041;DHT22;10181;48.072;9.884;2023-07-08T11:31:27;24.50;99.90
20041;DHT22;10181;48.072;9.884;2023-07-08T11:33:53;24.50;99.90
20041;DHT22;10181;48.072;9.884;2023-07-08T11:36:21;24.50;99.90
20041;DHT22;10181;48.072;9.884;2023-07-08T11:38:48;24.50;99.90
20041;DHT22;10181;48.072;9.884;2023-07-08T11:41:17;24.50;99.90
20041;DHT22;10181;48.072;9.884;2023-07-08T11:46:26;24.60;99.90
20041;DHT22;10181;48.072;9.884;2023-07-08T11:48:55;24.70;99.90
20041;DHT22;10181;48.072;9.884;2023-07-08T11:51:34;24.80;99.90
20041;DHT22;10181;48.072;9.884;2023-07-08T11:56:59;25.20;99.90
20041;DHT22;10181;48.072;9.884;2023-07-08T11:59:30;25.30;99.90
20041;DHT22;10181;48.072;9.884;2023-07-08T12:02:13;25.50;99.90
20041;DHT22;10181;48.072;9.884;2023-07-08T12:05:02;25.40;99.90
20041;DHT22;10181;48.072;9.884;2023-07-08T12:07:47;25.20;99.90
20041;DHT22;10181;48.072;9.884;2023-07-08T12:10:26;25.10;99.90
20041;DHT22;10181;48.072;9.884;2023-07-08T12:12:52;25.10;99.90
20041;DHT22;10181;48.072;9.884;2023-07-08T12:15:30;25.00;99.90
20041;DHT22;10181;48.072;9.884;2023-07-08T12:18:00;24.90;99.90
20041;DHT22;10181;48.072;9.884;2023-07-08T12:20:32;24.90;99.90
20041;DHT22;10181;48.072;9.884;2023-07-08T12:22:58;25.00;99.90
20041;DHT22;10181;48.072;9.884;2023-07-08T12:25:31;25.20;99.90
20041;DHT22;10181;48.072;9.884;2023-07-08T12:27:57;25.40;99.90
20041;DHT22;10181;48.072;9.884;2023-07-08T12:30:23;25.50;99.90
20041;DHT22;10181;48.072;9.884;2023-07-08T12:32:51;25.60;99.90
20041;DHT22;10181;48.072;9.884;2023-07-08T12:35:23;25.70;99.90
20041;DHT22;10181;48.072;9.884;2023-07-08T12:37:52;25.90;99.90
20041;DHT22;10181;48.072;9.884;2023-07-08T12:40:21;26.00;99.90
20041;DHT22;10181;48.072;9.884;2023-07-08T12:42:47;26.10;99.90
20041;DHT22;10181;48.072;9.884;2023-07-08T12:45:19;26.10;99.90
20041;DHT22;10181;48.072;9.884;2023-07-08T12:47:45;26.10;99.90
20041;DHT22;10181;48.072;9.884;2023-07-08T12:50:12;26.20;99.90
20041;DHT22;10181;48.072;9.884;2023-07-08T12:52:38;26.20;99.90
20041;DHT22;10181;48.072;9.884;2023-07-08T12:55:05;26.30;99.90
20041;DHT22;10181;48.072;9.884;2023-07-08T12:57:33;26.10;99.90
20041;DHT22;10181;48.072;9.884;2023-07-08T13:00:00;26.00;99.90
20041;DHT22;10181;48.072;9.884;2023-07-08T13:02:27;25.90;99.90
20041;DHT22;10181;48.072;9.884;2023-07-08T13:05:01;25.90;99.90
20041;DHT22;10181;48.072;9.884;2023-07-08T13:09:54;26.00;99.90
20041;DHT22;10181;48.072;9.884;2023-07-08T13:12:21;26.10;99.90
20041;DHT22;10181;48.072;9.884;2023-07-08T13:14:52;26.10;99.90
20041;DHT22;10181;48.072;9.884;2023-07-08T13:17:18;26.10;99.90
20041;DHT22;10181;48.072;9.884;2023-07-08T13:19:44;26.10;99.90
20041;DHT22;10181;48.072;9.884;2023-07-08T13:22:18;26.20;99.90
20041;DHT22;10181;48.072;9.884;2023-07-08T13:24:45;26.30;99.90
20041;DHT22;10181;48.072;9.884;2023-07-08T13:27:37;26.50;99.90
20041;DHT22;10181;48.072;9.884;2023-07-08T13:30:18;26.50;99.90
20041;DHT22;10181;48.072;9.884;2023-07-08T13:32:45;26.60;99.50
20041;DHT22;10181;48.072;9.884;2023-07-08T13:35:38;26.70;99.10
20041;DHT22;10181;48.072;9.884;2023-07-08T13:38:05;26.60;98.20
20041;DHT22;10181;48.072;9.884;2023-07-08T13:40:31;26.60;98.20
20041;DHT22;10181;48.072;9.884;2023-07-08T13:42:57;26.70;98.00
20041;DHT22;10181;48.072;9.884;2023-07-08T13:45:26;26.90;96.90
20041;DHT22;10181;48.072;9.884;2023-07-08T13:53:26;26.70;95.20
20041;DHT22;10181;48.072;9.884;2023-07-08T13:56:00;26.70;97.70
20041;DHT22;10181;48.072;9.884;2023-07-08T13:58:28;26.80;95.80
20041;DHT22;10181;48.072;9.884;2023-07-08T14:00:54;27.00;97.30
20041;DHT22;10181;48.072;9.884;2023-07-08T14:03:20;27.20;96.80
20041;DHT22;10181;48.072;9.884;2023-07-08T14:05:46;27.40;95.20
20041;DHT22;10181;48.072;9.884;2023-07-08T14:08:16;27.30;96.60
20041;DHT22;10181;48.072;9.884;2023-07-08T14:10:43;27.20;96.70
20041;DHT22;10181;48.072;9.884;2023-07-08T14:13:10;27.00;96.10
20041;DHT22;10181;48.072;9.884;2023-07-08T14:15:38;26.80;95.10
20041;DHT22;10181;48.072;9.884;2023-07-08T14:18:04;26.60;93.90
20041;DHT22;10181;48.072;9.884;2023-07-08T14:20:30;26.60;94.50
20041;DHT22;10181;48.072;9.884;2023-07-08T14:22:56;26.60;94.90
20041;DHT22;10181;48.072;9.884;2023-07-08T14:25:22;26.70;94.40
20041;DHT22;10181;48.072;9.884;2023-07-08T14:27:49;26.80;94.50
20041;DHT22;10181;48.072;9.884;2023-07-08T14:30:16;26.90;94.80
20041;DHT22;10181;48.072;9.884;2023-07-08T14:32:41;26.90;95.40
20041;DHT22;10181;48.072;9.884;2023-07-08T14:35:31;26.90;94.90
20041;DHT22;10181;48.072;9.884;2023-07-08T14:37:57;27.00;95.10
20041;DHT22;10181;48.072;9.884;2023-07-08T14:40:33;27.00;93.80
20041;DHT22;10181;48.072;9.884;2023-07-08T14:43:06;27.00;93.70
20041;DHT22;10181;48.072;9.884;2023-07-08T14:45:40;27.10;93.90
20041;DHT22;10181;48.072;9.884;2023-07-08T14:48:10;27.20;93.70
20041;DHT22;10181;48.072;9.884;2023-07-08T14:50:37;27.30;92.80
20041;DHT22;10181;48.072;9.884;2023-07-08T14:53:02;27.30;92.20
20041;DHT22;10181;48.072;9.884;2023-07-08T14:55:28;27.40;91.70
20041;DHT22;10181;48.072;9.884;2023-07-08T14:57:54;27.60;88.30
20041;DHT22;10181;48.072;9.884;2023-07-08T15:00:22;27.50;87.60
20041;DHT22;10181;48.072;9.884;2023-07-08T15:02:49;27.50;90.20
20041;DHT22;10181;48.072;9.884;2023-07-08T15:05:19;27.60;90.40
20041;DHT22;10181;48.072;9.884;2023-07-08T15:07:51;27.60;91.90
20041;DHT22;10181;48.072;9.884;2023-07-08T15:10:18;27.70;92.20
20041;DHT22;10181;48.072;9.884;2023-07-08T15:12:45;27.70;91.90
20041;DHT22;10181;48.072;9.884;2023-07-08T15:15:21;27.70;89.90
20041;DHT22;10181;48.072;9.884;2023-07-08T15:17:48;27.60;90.90
20041;DHT22;10181;48.072;9.884;2023-07-08T15:20:14;27.60;91.30
20041;DHT22;10181;48.072;9.884;2023-07-08T15:22:41;27.60;91.40
20041;DHT22;10181;48.072;9.884;2023-07-08T15:25:12;27.60;91.10
20041;DHT22;10181;48.072;9.884;2023-07-08T15:27:42;27.60;91.40
20041;DHT22;10181;48.072;9.884;2023-07-08T15:30:15;27.50;90.80
20041;DHT22;10181;48.072;9.884;2023-07-08T15:32:42;27.40;91.30
20041;DHT22;10181;48.072;9.884;2023-07-08T15:35:18;27.40;91.40
20041;DHT22;10181;48.072;9.884;2023-07-08T15:37:45;27.40;90.40
20041;DHT22;10181;48.072;9.884;2023-07-08T15:40:18;27.60;90.60
20041;DHT22;10181;48.072;9.884;2023-07-08T15:42:49;27.60;90.90
20041;DHT22;10181;48.072;9.884;2023-07-08T15:45:20;27.60;91.00
20041;DHT22;10181;48.072;9.884;2023-07-08T15:47:47;27.60;90.70
20041;DHT22;10181;48.072;9.884;2023-07-08T15:50:15;27.70;90.50
20041;DHT22;10181;48.072;9.884;2023-07-08T15:52:41;27.70;90.90
20041;DHT22;10181;48.072;9.884;2023-07-08T15:55:12;27.70;90.50
20041;DHT22;10181;48.072;9.884;2023-07-08T15:57:50;27.70;90.70
20041;DHT22;10181;48.072;9.884;2023-07-08T16:00:24;27.70;90.70
20041;DHT22;10181;48.072;9.884;2023-07-08T16:02:54;27.90;90.40
20041;DHT22;10181;48.072;9.884;2023-07-08T16:05:20;28.00;90.50
20041;DHT22;10181;48.072;9.884;2023-07-08T16:07:47;28.20;91.30
20041;DHT22;10181;48.072;9.884;2023-07-08T16:10:14;28.30;90.20
20041;DHT22;10181;48.072;9.884;2023-07-08T16:12:40;28.50;89.40
20041;DHT22;10181;48.072;9.884;2023-07-08T16:15:17;28.50;88.80
20041;DHT22;10181;48.072;9.884;2023-07-08T16:17:44;28.60;87.50
20041;DHT22;10181;48.072;9.884;2023-07-08T16:20:22;28.60;86.70
20041;DHT22;10181;48.072;9.884;2023-07-08T16:22:49;28.70;87.20
20041;DHT22;10181;48.072;9.884;2023-07-08T16:25:16;28.90;87.10
20041;DHT22;10181;48.072;9.884;2023-07-08T16:27:44;28.80;84.40
20041;DHT22;10181;48.072;9.884;2023-07-08T16:30:16;28.70;86.50
20041;DHT22;10181;48.072;9.884;2023-07-08T16:32:43;28.80;87.80
20041;DHT22;10181;48.072;9.884;2023-07-08T16:35:10;28.80;86.40
20041;DHT22;10181;48.072;9.884;2023-07-08T16:37:37;28.90;83.70
20041;DHT22;10181;48.072;9.884;2023-07-08T16:40:04;28.90;85.70
20041;DHT22;10181;48.072;9.884;2023-07-08T16:42:29;28.90;85.10
20041;DHT22;10181;48.072;9.884;2023-07-08T16:44:55;29.00;86.30
20041;DHT22;10181;48.072;9.884;2023-07-08T16:47:20;29.00;85.30
20041;DHT22;10181;48.072;9.884;2023-07-08T16:49:46;29.00;85.20
20041;DHT22;10181;48.072;9.884;2023-07-08T16:52:13;29.00;84.40
20041;DHT22;10181;48.072;9.884;2023-07-08T16:54:40;29.00;84.20